createdAt,value
2022-08-29T00:00:17.904Z,102353.78
2022-08-29T00:02:51.997Z,102353.56
2022-08-29T00:05:25.100Z,102356.84
2022-08-29T00:07:53.700Z,102347.06
2022-08-29T00:10:22.872Z,102345.03
2022-08-29T00:12:52.040Z,102349.03
2022-08-29T00:15:21.344Z,102355.41
2022-08-29T00:17:51.478Z,102352.50
2022-08-29T00:20:34.064Z,102352.09
2022-08-29T00:23:04.543Z,102359.47
2022-08-29T00:25:33.019Z,102347.47
2022-08-29T00:28:01.614Z,102342.97
2022-08-29T00:30:30.189Z,102354.56
2022-08-29T00:32:59.810Z,102358.81
2022-08-29T00:35:33.287Z,102343.91
2022-08-29T00:38:05.630Z,102357.31
2022-08-29T00:40:38.873Z,102355.50
2022-08-29T00:43:08.570Z,102348.91
2022-08-29T00:45:39.821Z,102356.25
2022-08-29T00:48:15.599Z,102357.91
2022-08-29T00:50:50.177Z,102360.94
2022-08-29T00:53:23.958Z,102353.31
2022-08-29T00:55:52.490Z,102362.28
2022-08-29T00:58:29.452Z,102364.50
2022-08-29T01:00:58.342Z,102360.38
2022-08-29T01:03:29.036Z,102381.69
2022-08-29T01:05:57.324Z,102374.66
2022-08-29T01:08:25.886Z,102368.59
2022-08-29T01:11:11.858Z,102373.16
2022-08-29T01:13:45.547Z,102372.28
2022-08-29T01:16:15.911Z,102363.88
2022-08-29T01:18:49.414Z,102370.41
2022-08-29T01:21:30.535Z,102378.00
2022-08-29T01:24:11.785Z,102369.06
2022-08-29T01:26:42.042Z,102368.47
2022-08-29T01:29:10.947Z,102372.81
2022-08-29T01:31:56.361Z,102377.72
2022-08-29T01:34:27.408Z,102372.63
2022-08-29T01:36:59.243Z,102376.69
2022-08-29T01:39:31.783Z,102374.47
2022-08-29T01:42:05.404Z,102373.97
2022-08-29T01:44:33.979Z,102374.00
2022-08-29T01:47:03.599Z,102373.00
2022-08-29T01:49:35.318Z,102370.41
2022-08-29T01:52:07.971Z,102366.91
2022-08-29T01:54:36.504Z,102362.38
2022-08-29T01:57:10.862Z,102368.41
2022-08-29T01:59:41.647Z,102378.25
2022-08-29T02:02:16.595Z,102376.69
2022-08-29T02:04:47.188Z,102369.44
2022-08-29T02:07:18.670Z,102371.97
2022-08-29T02:09:48.613Z,102371.28
2022-08-29T02:12:20.555Z,102361.97
2022-08-29T02:14:50.623Z,102360.25
2022-08-29T02:17:20.912Z,102356.56
2022-08-29T02:19:49.362Z,102362.97
2022-08-29T02:22:18.956Z,102356.75
2022-08-29T02:24:47.259Z,102360.06
2022-08-29T02:27:17.086Z,102355.00
2022-08-29T02:29:45.310Z,102359.28
2022-08-29T02:32:15.869Z,102355.91
2022-08-29T02:34:47.700Z,102359.09
2022-08-29T02:37:19.062Z,102353.06
2022-08-29T02:39:47.319Z,102358.91
2022-08-29T02:42:17.792Z,102366.81
2022-08-29T02:44:47.345Z,102360.25
2022-08-29T02:47:15.955Z,102366.53
2022-08-29T02:49:44.210Z,102357.25
2022-08-29T02:52:12.911Z,102352.88
2022-08-29T02:54:41.171Z,102360.31
2022-08-29T02:57:09.649Z,102365.06
2022-08-29T02:59:39.818Z,102364.84
2022-08-29T03:02:08.179Z,102370.22
2022-08-29T03:04:36.702Z,102356.16
2022-08-29T03:07:06.200Z,102365.13
2022-08-29T03:09:34.906Z,102366.41
2022-08-29T03:12:03.328Z,102363.22
2022-08-29T03:14:31.831Z,102359.81
2022-08-29T03:17:01.798Z,102363.59
2022-08-29T03:19:30.213Z,102359.22
2022-08-29T03:21:58.415Z,102361.19
2022-08-29T03:24:27.209Z,102362.94
2022-08-29T03:26:57.172Z,102362.94
2022-08-29T03:29:29.438Z,102353.03
2022-08-29T03:31:58.749Z,102353.22
2022-08-29T03:34:29.285Z,102343.75
2022-08-29T03:36:58.283Z,102345.09
2022-08-29T03:39:27.132Z,102344.16
2022-08-29T03:41:55.475Z,102333.66
2022-08-29T03:44:24.024Z,102343.84
2022-08-29T03:46:52.270Z,102335.97
2022-08-29T03:49:20.929Z,102338.13
2022-08-29T03:51:50.878Z,102329.03
2022-08-29T03:54:19.319Z,102324.47
2022-08-29T03:56:48.066Z,102331.31
2022-08-29T03:59:17.614Z,102323.59
2022-08-29T04:01:48.057Z,102333.38
2022-08-29T04:04:37.405Z,102327.88
2022-08-29T04:07:08.793Z,102334.47
2022-08-29T04:09:38.593Z,102323.19
2022-08-29T04:12:07.467Z,102331.94
2022-08-29T04:14:35.815Z,102336.75
2022-08-29T04:17:05.030Z,102330.09
2022-08-29T04:19:35.194Z,102333.59
2022-08-29T04:22:04.147Z,102332.00
2022-08-29T04:24:34.593Z,102339.81
2022-08-29T04:27:02.760Z,102347.09
2022-08-29T04:29:31.085Z,102327.53
2022-08-29T04:31:59.464Z,102342.94
2022-08-29T04:34:28.104Z,102339.44
2022-08-29T04:36:56.322Z,102338.38
2022-08-29T04:39:24.546Z,102333.16
2022-08-29T04:41:54.130Z,102334.59
2022-08-29T04:44:22.295Z,102331.41
2022-08-29T04:46:50.534Z,102337.72
2022-08-29T04:49:19.532Z,102341.03
2022-08-29T04:51:47.755Z,102336.75
2022-08-29T04:54:15.926Z,102344.22
2022-08-29T04:56:47.293Z,102344.88
2022-08-29T04:59:19.438Z,102345.56
2022-08-29T05:01:48.974Z,102346.84
2022-08-29T05:04:17.150Z,102348.91
2022-08-29T05:06:45.331Z,102338.84
2022-08-29T05:09:13.754Z,102337.31
2022-08-29T05:11:42.692Z,102346.03
2022-08-29T05:14:11.290Z,102338.06
2022-08-29T05:16:41.927Z,102351.34
2022-08-29T05:19:11.697Z,102350.13
2022-08-29T05:21:41.327Z,102348.63
2022-08-29T05:24:12.969Z,102355.88
2022-08-29T05:26:45.325Z,102361.31
2022-08-29T05:29:14.202Z,102354.81
2022-08-29T05:31:45.809Z,102359.53
2022-08-29T05:34:34.916Z,102361.50
2022-08-29T05:37:02.992Z,102361.09
2022-08-29T05:39:31.175Z,102360.88
2022-08-29T05:42:00.356Z,102358.69
2022-08-29T05:44:34.919Z,102355.88
2022-08-29T05:47:06.068Z,102363.94
2022-08-29T05:49:36.676Z,102357.63
2022-08-29T05:52:06.252Z,102367.84
2022-08-29T05:54:37.956Z,102363.72
2022-08-29T05:57:07.550Z,102366.81
2022-08-29T05:59:36.928Z,102381.72
2022-08-29T06:02:10.950Z,102376.13
2022-08-29T06:04:40.617Z,102376.66
2022-08-29T06:07:09.883Z,102378.13
2022-08-29T06:09:39.581Z,102376.22
2022-08-29T06:12:10.838Z,102375.34
2022-08-29T06:14:39.495Z,102381.34
2022-08-29T06:17:09.976Z,102386.69
2022-08-29T06:19:39.453Z,102387.25
2022-08-29T06:22:10.791Z,102385.84
2022-08-29T06:24:40.620Z,102390.22
2022-08-29T06:27:14.273Z,102390.38
2022-08-29T06:29:43.605Z,102384.44
2022-08-29T06:32:14.153Z,102384.94
2022-08-29T06:34:42.831Z,102384.56
2022-08-29T06:37:11.308Z,102387.63
2022-08-29T06:39:39.517Z,102399.38
2022-08-29T06:42:07.991Z,102394.72
2022-08-29T06:44:38.406Z,102378.53
2022-08-29T06:47:08.426Z,102391.47
2022-08-29T06:49:37.993Z,102397.22
2022-08-29T06:52:06.446Z,102391.78
2022-08-29T06:54:34.869Z,102393.31
2022-08-29T06:57:04.466Z,102389.28
2022-08-29T06:59:32.655Z,102392.75
2022-08-29T07:02:00.864Z,102391.84
2022-08-29T07:04:30.127Z,102387.09
2022-08-29T07:07:00.217Z,102383.78
2022-08-29T07:09:30.905Z,102396.59
2022-08-29T07:11:58.976Z,102396.28
2022-08-29T07:14:27.129Z,102396.53
2022-08-29T07:16:56.557Z,102395.81
2022-08-29T07:19:24.724Z,102394.38
2022-08-29T07:21:54.298Z,102391.44
2022-08-29T07:24:27.911Z,102391.97
2022-08-29T07:26:56.116Z,102386.59
2022-08-29T07:29:24.764Z,102385.09
2022-08-29T07:31:53.483Z,102387.72
2022-08-29T07:34:21.609Z,102398.69
2022-08-29T07:36:50.058Z,102391.47
2022-08-29T07:39:20.371Z,102387.31
2022-08-29T07:41:50.057Z,102393.94
2022-08-29T07:44:20.156Z,102382.13
2022-08-29T07:46:48.470Z,102384.69
2022-08-29T07:49:16.689Z,102385.19
2022-08-29T07:51:44.963Z,102378.63
2022-08-29T07:54:16.516Z,102376.38
2022-08-29T07:56:45.119Z,102376.56
2022-08-29T07:59:15.613Z,102378.72
2022-08-29T08:01:44.290Z,102379.78
2022-08-29T08:04:13.009Z,102385.28
2022-08-29T08:06:43.616Z,102393.19
2022-08-29T08:09:14.061Z,102397.97
2022-08-29T08:11:43.565Z,102394.00
2022-08-29T08:14:12.255Z,102392.09
2022-08-29T08:16:44.276Z,102399.66
2022-08-29T08:19:14.260Z,102389.41
2022-08-29T08:21:49.424Z,102384.41
2022-08-29T08:24:19.914Z,102384.94
2022-08-29T08:26:49.420Z,102387.91
2022-08-29T08:29:17.974Z,102382.47
2022-08-29T08:31:50.819Z,102390.16
2022-08-29T08:34:20.544Z,102398.94
2022-08-29T08:36:48.654Z,102395.28
2022-08-29T08:39:16.782Z,102402.91
2022-08-29T08:41:57.109Z,102398.00
2022-08-29T08:44:58.232Z,102395.50
2022-08-29T08:47:33.409Z,102389.50
2022-08-29T08:50:04.596Z,102393.56
2022-08-29T08:52:42.336Z,102390.03
2022-08-29T08:55:23.588Z,102395.00
2022-08-29T08:58:02.727Z,102397.72
2022-08-29T09:00:41.229Z,102390.94
2022-08-29T09:03:38.485Z,102392.31
2022-08-29T09:06:18.899Z,102396.88
2022-08-29T09:08:54.947Z,102401.09
2022-08-29T09:11:36.403Z,102409.56
2022-08-29T09:14:12.168Z,102399.56
2022-08-29T09:16:49.955Z,102401.78
2022-08-29T09:19:19.544Z,102402.03
2022-08-29T09:21:52.687Z,102403.34
2022-08-29T09:24:29.723Z,102402.84
2022-08-29T09:26:58.250Z,102404.53
2022-08-29T09:29:29.919Z,102410.19
2022-08-29T09:32:09.875Z,102410.78
2022-08-29T09:35:07.283Z,102409.97
2022-08-29T09:37:36.055Z,102412.31
2022-08-29T09:40:10.986Z,102407.81
2022-08-29T09:42:44.737Z,102415.19
2022-08-29T09:45:21.923Z,102412.31
2022-08-29T09:47:50.129Z,102412.16
2022-08-29T09:50:25.494Z,102417.16
2022-08-29T09:52:55.264Z,102417.06
2022-08-29T09:55:31.501Z,102407.69
2022-08-29T09:58:05.146Z,102417.44
2022-08-29T10:00:37.832Z,102404.22
2022-08-29T10:03:12.460Z,102408.97
2022-08-29T10:05:45.415Z,102409.91
2022-08-29T10:08:31.187Z,102414.44
2022-08-29T10:11:01.930Z,102422.78
2022-08-29T10:13:41.494Z,102419.50
2022-08-29T10:16:19.804Z,102408.81
2022-08-29T10:18:53.776Z,102407.53
2022-08-29T10:21:34.979Z,102410.78
2022-08-29T10:24:31.981Z,102404.78
2022-08-29T10:27:10.803Z,102401.41
2022-08-29T10:29:59.102Z,102401.91
2022-08-29T10:32:56.534Z,102407.47
2022-08-29T10:35:30.782Z,102405.25
2022-08-29T10:38:09.924Z,102404.06
2022-08-29T10:40:48.528Z,102401.31
2022-08-29T10:43:39.978Z,102396.69
2022-08-29T10:46:34.712Z,102397.66
2022-08-29T10:49:19.182Z,102398.84
2022-08-29T10:51:59.642Z,102402.63
2022-08-29T10:54:40.038Z,102397.84
2022-08-29T10:57:10.149Z,102396.25
2022-08-29T10:59:58.377Z,102396.69
2022-08-29T11:02:33.314Z,102396.53
2022-08-29T11:05:09.185Z,102397.81
2022-08-29T11:07:46.908Z,102388.91
2022-08-29T11:10:20.358Z,102393.34
2022-08-29T11:13:01.302Z,102396.06
2022-08-29T11:15:41.410Z,102385.00
2022-08-29T11:18:22.391Z,102386.47
2022-08-29T11:20:57.760Z,102376.06
2022-08-29T11:23:42.980Z,102377.28
2022-08-29T11:26:27.323Z,102382.38
2022-08-29T11:29:03.311Z,102374.69
2022-08-29T11:31:49.826Z,102380.91
2022-08-29T11:34:45.938Z,102381.03
2022-08-29T11:37:39.934Z,102380.78
2022-08-29T11:40:12.572Z,102375.03
2022-08-29T11:42:50.974Z,102376.66
2022-08-29T11:45:35.637Z,102380.09
2022-08-29T11:48:31.397Z,102368.13
2022-08-29T11:51:01.391Z,102374.03
2022-08-29T11:53:35.096Z,102371.19
2022-08-29T11:56:30.980Z,102372.97
2022-08-29T11:59:01.599Z,102378.84
2022-08-29T12:02:02.078Z,102373.09
2022-08-29T12:04:56.673Z,102375.69
2022-08-29T12:07:37.031Z,102366.16
2022-08-29T12:10:12.242Z,102367.94
2022-08-29T12:12:46.394Z,102379.06
2022-08-29T12:15:58.019Z,102368.47
2022-08-29T12:18:47.778Z,102366.41
2022-08-29T12:21:47.130Z,102371.16
2022-08-29T12:24:33.422Z,102366.03
2022-08-29T12:27:02.166Z,102364.56
2022-08-29T12:29:43.581Z,102367.06
2022-08-29T12:32:56.056Z,102352.47
2022-08-29T12:35:47.481Z,102353.25
2022-08-29T12:38:31.310Z,102348.94
2022-08-29T12:41:18.296Z,102347.91
2022-08-29T12:43:47.558Z,102346.06
2022-08-29T12:46:24.571Z,102341.03
2022-08-29T12:49:04.117Z,102332.50
2022-08-29T12:51:36.417Z,102338.06
2022-08-29T12:54:05.864Z,102331.38
2022-08-29T12:56:35.706Z,102329.56
2022-08-29T12:59:06.109Z,102330.78
2022-08-29T13:01:38.664Z,102328.97
2022-08-29T13:04:18.888Z,102332.72
2022-08-29T13:06:58.657Z,102326.91
2022-08-29T13:09:32.994Z,102324.94
2022-08-29T13:12:11.603Z,102324.53
2022-08-29T13:14:57.168Z,102322.06
2022-08-29T13:17:27.558Z,102317.78
2022-08-29T13:20:49.148Z,102313.59
2022-08-29T13:23:26.630Z,102314.66
2022-08-29T13:26:03.090Z,102306.44
2022-08-29T13:28:40.113Z,102304.84
2022-08-29T13:31:33.027Z,102306.09
2022-08-29T13:34:20.749Z,102304.34
2022-08-29T13:37:10.545Z,102296.91
2022-08-29T13:39:49.016Z,102296.00
2022-08-29T13:42:33.457Z,102291.94
2022-08-29T13:45:12.231Z,102289.84
2022-08-29T13:47:50.835Z,102292.41
2022-08-29T13:50:19.097Z,102292.53
2022-08-29T13:52:52.814Z,102293.84
2022-08-29T13:55:21.865Z,102284.00
2022-08-29T13:57:53.639Z,102300.50
2022-08-29T14:00:32.029Z,102301.44
2022-08-29T14:03:03.428Z,102297.69
2022-08-29T14:05:32.023Z,102298.72
2022-08-29T14:08:01.596Z,102294.56
2022-08-29T14:10:29.769Z,102286.69
2022-08-29T14:12:57.944Z,102283.66
2022-08-29T14:15:26.448Z,102268.84
2022-08-29T14:17:54.743Z,102269.41
2022-08-29T14:20:23.114Z,102261.34
2022-08-29T14:22:51.472Z,102275.38
2022-08-29T14:25:21.414Z,102277.97
2022-08-29T14:27:50.245Z,102266.44
2022-08-29T14:30:21.918Z,102268.00
2022-08-29T14:32:50.345Z,102259.16
2022-08-29T14:35:27.635Z,102251.19
2022-08-29T14:38:02.759Z,102255.34
2022-08-29T14:40:33.990Z,102246.72
2022-08-29T14:43:04.185Z,102237.19
2022-08-29T14:45:32.956Z,102251.69
2022-08-29T14:48:05.706Z,102252.94
2022-08-29T14:50:34.911Z,102253.09
2022-08-29T14:53:03.066Z,102258.16
2022-08-29T14:55:33.687Z,102256.00
2022-08-29T14:58:01.878Z,102256.66
2022-08-29T15:00:33.894Z,102248.53
2022-08-29T15:03:02.373Z,102243.78
2022-08-29T15:05:30.533Z,102246.00
2022-08-29T15:08:01.890Z,102238.88
2022-08-29T15:10:35.909Z,102243.13
2022-08-29T15:13:05.130Z,102242.19
2022-08-29T15:15:33.247Z,102243.03
2022-08-29T15:18:05.277Z,102238.09
2022-08-29T15:20:36.625Z,102222.31
2022-08-29T15:23:08.127Z,102220.38
2022-08-29T15:25:37.746Z,102214.72
2022-08-29T15:28:08.672Z,102213.75
2022-08-29T15:30:36.925Z,102210.56
2022-08-29T15:33:05.423Z,102215.78
2022-08-29T15:35:33.717Z,102207.72
2022-08-29T15:38:01.974Z,102213.41
2022-08-29T15:40:30.241Z,102215.78
2022-08-29T15:42:59.793Z,102208.47
2022-08-29T15:45:28.629Z,102204.06
2022-08-29T15:48:00.677Z,102210.44
2022-08-29T15:50:29.773Z,102209.50
2022-08-29T15:52:58.036Z,102206.94
2022-08-29T15:55:26.229Z,102206.72
2022-08-29T15:57:54.658Z,102195.78
2022-08-29T16:00:30.538Z,102195.47
2022-08-29T16:03:02.803Z,102198.00
2022-08-29T16:05:32.465Z,102193.75
2022-08-29T16:08:00.903Z,102201.44
2022-08-29T16:10:29.291Z,102186.91
2022-08-29T16:12:57.471Z,102191.50
2022-08-29T16:15:30.827Z,102192.19
2022-08-29T16:18:00.211Z,102196.28
2022-08-29T16:20:28.604Z,102186.53
2022-08-29T16:22:57.260Z,102180.09
2022-08-29T16:25:27.721Z,102181.59
2022-08-29T16:27:57.088Z,102175.28
2022-08-29T16:30:27.500Z,102178.69
2022-08-29T16:32:56.106Z,102178.63
2022-08-29T16:35:25.983Z,102173.00
2022-08-29T16:38:02.279Z,102186.97
2022-08-29T16:40:32.034Z,102179.41
2022-08-29T16:43:01.562Z,102180.34
2022-08-29T16:45:31.952Z,102185.41
2022-08-29T16:48:00.504Z,102190.44
2022-08-29T16:50:30.146Z,102198.16
2022-08-29T16:52:58.444Z,102196.97
2022-08-29T16:55:28.650Z,102194.88
2022-08-29T16:58:14.889Z,102191.88
2022-08-29T17:00:45.417Z,102190.63
2022-08-29T17:03:18.063Z,102186.47
2022-08-29T17:05:48.761Z,102183.53
2022-08-29T17:08:16.490Z,102191.38
2022-08-29T17:10:43.791Z,102185.31
2022-08-29T17:13:11.150Z,102178.13
2022-08-29T17:15:38.250Z,102185.78
2022-08-29T17:18:08.436Z,102186.63
2022-08-29T17:20:37.829Z,102185.47
2022-08-29T17:23:10.139Z,102177.44
2022-08-29T17:25:40.526Z,102183.94
2022-08-29T17:28:24.529Z,102185.47
2022-08-29T17:30:53.009Z,102188.44
2022-08-29T17:33:27.174Z,102198.41
2022-08-29T17:35:56.204Z,102199.56
2022-08-29T17:38:26.259Z,102200.03
2022-08-29T17:40:59.104Z,102201.56
2022-08-29T17:43:31.162Z,102205.91
2022-08-29T17:46:02.024Z,102215.72
2022-08-29T17:48:32.454Z,102219.00
2022-08-29T17:51:00.688Z,102216.66
2022-08-29T17:53:29.856Z,102217.28
2022-08-29T17:55:58.363Z,102205.91
2022-08-29T17:58:26.594Z,102217.56
2022-08-29T18:00:54.817Z,102216.03
2022-08-29T18:03:24.795Z,102222.88
2022-08-29T18:05:54.405Z,102223.88
2022-08-29T18:08:22.620Z,102227.28
2022-08-29T18:10:51.625Z,102218.34
2022-08-29T18:13:21.761Z,102223.13
2022-08-29T18:15:50.546Z,102222.44
2022-08-29T18:18:21.078Z,102225.97
2022-08-29T18:20:49.435Z,102226.84
2022-08-29T18:23:19.397Z,102224.94
2022-08-29T18:25:47.810Z,102236.69
2022-08-29T18:28:16.155Z,102231.38
2022-08-29T18:30:44.559Z,102236.59
2022-08-29T18:33:13.010Z,102247.75
2022-08-29T18:35:41.546Z,102243.56
2022-08-29T18:38:10.210Z,102238.59
2022-08-29T18:40:40.021Z,102234.88
2022-08-29T18:43:09.889Z,102238.09
2022-08-29T18:45:38.618Z,102253.44
2022-08-29T18:48:07.149Z,102247.88
2022-08-29T18:50:35.484Z,102238.84
2022-08-29T18:53:07.612Z,102248.72
2022-08-29T18:55:36.114Z,102252.03
2022-08-29T18:58:06.386Z,102258.81
2022-08-29T19:00:35.558Z,102254.88
2022-08-29T19:03:05.216Z,102259.72
2022-08-29T19:05:42.166Z,102265.47
2022-08-29T19:08:11.652Z,102266.00
2022-08-29T19:10:40.063Z,102274.75
2022-08-29T19:13:10.141Z,102273.56
2022-08-29T19:15:41.474Z,102285.78
2022-08-29T19:18:11.711Z,102284.34
2022-08-29T19:20:58.181Z,102283.00
2022-08-29T19:23:26.744Z,102293.75
2022-08-29T19:25:55.133Z,102289.22
2022-08-29T19:28:27.919Z,102274.94
2022-08-29T19:30:56.284Z,102294.72
2022-08-29T19:33:24.894Z,102283.19
2022-08-29T19:35:53.715Z,102284.13
2022-08-29T19:38:23.902Z,102301.56
2022-08-29T19:40:55.475Z,102293.59
2022-08-29T19:43:29.653Z,102285.00
2022-08-29T19:45:59.716Z,102291.66
2022-08-29T19:48:29.653Z,102289.66
2022-08-29T19:50:58.373Z,102279.34
2022-08-29T19:53:27.187Z,102293.72
2022-08-29T19:55:56.911Z,102288.84
2022-08-29T19:58:31.964Z,102305.34
2022-08-29T20:01:02.686Z,102306.09
2022-08-29T20:03:32.175Z,102317.94
2022-08-29T20:06:05.741Z,102310.28
2022-08-29T20:08:35.858Z,102313.31
2022-08-29T20:11:06.521Z,102317.34
2022-08-29T20:13:36.971Z,102315.66
2022-08-29T20:16:12.645Z,102301.38
2022-08-29T20:18:42.393Z,102307.50
2022-08-29T20:21:13.309Z,102305.22
2022-08-29T20:23:49.686Z,102316.66
2022-08-29T20:26:20.232Z,102328.19
2022-08-29T20:28:52.039Z,102321.91
2022-08-29T20:31:21.343Z,102320.38
2022-08-29T20:33:50.286Z,102322.88
2022-08-29T20:36:38.589Z,102323.44
2022-08-29T20:39:09.227Z,102318.50
2022-08-29T20:41:38.032Z,102320.50
2022-08-29T20:44:09.871Z,102330.41
2022-08-29T20:46:41.098Z,102326.47
2022-08-29T20:49:09.690Z,102333.00
2022-08-29T20:51:43.278Z,102334.50
2022-08-29T20:54:14.105Z,102336.50
2022-08-29T20:56:42.749Z,102339.28
2022-08-29T20:59:12.775Z,102337.59
2022-08-29T21:01:41.653Z,102340.03
2022-08-29T21:04:29.505Z,102332.94
2022-08-29T21:07:00.214Z,102341.16
2022-08-29T21:09:29.023Z,102333.63
2022-08-29T21:11:57.672Z,102336.63
2022-08-29T21:14:28.363Z,102331.94
2022-08-29T21:16:58.286Z,102324.88
2022-08-29T21:19:29.861Z,102326.84
2022-08-29T21:21:59.919Z,102342.16
2022-08-29T21:24:29.469Z,102327.59
2022-08-29T21:26:58.248Z,102331.81
2022-08-29T21:29:28.391Z,102333.22
2022-08-29T21:31:57.054Z,102343.94
2022-08-29T21:34:25.492Z,102341.81
2022-08-29T21:36:54.492Z,102338.22
2022-08-29T21:39:28.452Z,102329.19
2022-08-29T21:42:02.395Z,102344.78
2022-08-29T21:44:32.686Z,102343.69
2022-08-29T21:47:01.942Z,102337.75
2022-08-29T21:49:31.282Z,102328.25
2022-08-29T21:51:59.832Z,102338.22
2022-08-29T21:54:28.515Z,102338.44
2022-08-29T21:56:56.770Z,102324.97
2022-08-29T21:59:27.908Z,102338.69
2022-08-29T22:01:57.709Z,102346.09
2022-08-29T22:04:28.595Z,102335.22
2022-08-29T22:06:59.651Z,102346.25
2022-08-29T22:09:30.165Z,102346.31
2022-08-29T22:11:58.887Z,102348.84
2022-08-29T22:14:42.364Z,102347.69
2022-08-29T22:17:12.069Z,102357.59
2022-08-29T22:19:40.731Z,102352.91
2022-08-29T22:22:10.194Z,102349.47
2022-08-29T22:24:38.530Z,102355.19
2022-08-29T22:27:07.189Z,102347.03
2022-08-29T22:29:35.479Z,102350.81
2022-08-29T22:32:04.245Z,102355.56
2022-08-29T22:34:34.181Z,102354.31
2022-08-29T22:37:02.517Z,102358.56
2022-08-29T22:39:30.814Z,102353.63
2022-08-29T22:41:59.121Z,102360.44
2022-08-29T22:47:16.497Z,102358.69
2022-08-29T22:49:46.362Z,102363.69
2022-08-29T22:52:14.759Z,102360.31
2022-08-29T22:54:43.261Z,102365.06
2022-08-29T22:57:15.808Z,102366.63
2022-08-29T22:59:45.336Z,102359.84
2022-08-29T23:02:14.704Z,102367.41
2022-08-29T23:04:43.793Z,102370.91
2022-08-29T23:07:13.742Z,102367.50
2022-08-29T23:09:43.641Z,102375.06
2022-08-29T23:12:14.334Z,102372.34
2022-08-29T23:14:46.342Z,102366.16
2022-08-29T23:17:15.553Z,102377.69
2022-08-29T23:19:44.677Z,102373.22
2022-08-29T23:22:15.428Z,102369.56
2022-08-29T23:24:51.605Z,102372.47
2022-08-29T23:27:28.706Z,102370.50
2022-08-29T23:29:58.040Z,102360.94
2022-08-29T23:32:26.653Z,102381.25
2022-08-29T23:34:54.994Z,102376.22
2022-08-29T23:37:24.825Z,102365.59
2022-08-29T23:39:53.273Z,102379.69
2022-08-29T23:42:21.516Z,102380.19
2022-08-29T23:44:49.898Z,102375.94
2022-08-29T23:47:18.940Z,102375.81
2022-08-29T23:49:47.579Z,102371.75
2022-08-29T23:52:15.802Z,102369.72
2022-08-29T23:54:45.347Z,102364.41
2022-08-29T23:57:13.706Z,102372.72
2022-08-29T23:59:59.532Z,102369.34
